Select your language:
Online Marketing Agentur sucht Gipfelstürmer   18th Kalahari Augrabies Extreme Marathon   UTAT Ultra-Trail-Atlas-Toubcal  
  AK:   Land:   Ø Geschw.:   AK-Wertung:   
Datum: 22.09.2012 Send Link
Veranstaltung: 1st Flagstaff Endurance 50 Mile Run (USA) Mehr Details zum Lauf.
Strecke: 50mi Landschaftslauf/Trail Ewige Bestenliste dieser Veranstaltung.
Finisher: 22 (15 M, 7 W) Mehrfach-Finisher.
Bestenlisten-tauglich: Nein
Ergebnisliste von: Link (Quelle zum Zeitpunkt der Erfassung.)
Erfassung durch: Andreas Knop     25.09.2013 19:06
 
22 Suchergebnisse
Gesamt- Rang Leistung Nachname, Vorname Verein Nat. Jg. M/W Rang M/W AK AK Rang Ø Geschw. km/h alters- korrigierte Leistung
1 8:41:03 h   Carson, Michael *Tempe, AZ   USA  1986 M 1 M23  1 9.266 8:41:03 h
2 10:27:25 h   Barstad, Adam *Glendale, AZ   USA  1976 M 2 M35  1 7.695 10:24:17 h
3 10:33:51 h   Metzger, Katherine *Prescott, AZ   USA  1980 W 1 W23  1 7.617 10:33:44 h
4 11:06:05 h   Henrie, Jason *Flagstaff, AZ   USA  1975 M 3 M35  2 7.248 11:00:46 h
5 11:15:00 h   Bonnett, Paul *Scottsdale, AZ   USA  1961 M 4 M50  1 7.153 10:04:53 h
6 11:15:21 h   Patterson, Van *Phoenix, AZ   USA  1974 M 5 M35  3 7.149 11:07:23 h
7 11:31:02 h   Blair, Brian *Silverado, CA   USA  1977 M 6 M23  2 6.987 11:29:11 h
8 11:31:02 h   Beach, Maggie *La Crescenta, CA   USA  1971 W 2 W40  1 6.987 11:10:14 h
9 11:32:44 h   Stackhouse, Timothy *Tucson, AZ   USA  1981 M 7 M23  3 6.970 11:32:44 h
10 11:46:39 h   Stanfield, Chris *Phoenix, AZ   USA  1978 M 8 M23  4 6.832 11:45:53 h
11 12:12:11 h   Bain, Janet *Flagstaff, AZ   USA  1975 W 3 W35  1 6.594 12:04:21 h
12 13:22:53 h   Skeer, Michael *Sedona, AZ   USA  1974 M 9 M35  4 6.013 13:13:25 h
13 14:11:38 h   Elias, Barbara *Flagstaff, AZ   USA  1962 W 4 W45  1 5.669 12:38:28 h
14 14:21:00 h   Fowler, James *Chandler, AZ   USA  1959 M 10 M50  2 5.607 12:38:12 h
15 14:22:00 h   Mitchell, Peter *Polacca, AZ   USA  1975 M 11 M35  5 5.601 14:15:07 h
16 14:26:15 h   Buettner, Stephanie *Scottsdale, AZ   USA  1967 W 5 W40  2 5.573 13:34:48 h
17 14:49:19 h   Henry, Tosca-Gabriella *Cottonwood, AZ   USA  1978 W 6 W23  2 5.429 14:47:01 h
18 14:49:19 h   Bane, Christie *Tucson, AZ   USA  1977 W 7 W23  3 5.429 14:45:09 h
19 14:49:19 h   Melchiors, Mike *Dewey, AZ   USA  1960 M 12 M50  3 5.429 13:10:05 h
20 14:55:01 h   Wieneke, Brian *Mesa, AZ   USA  1955 M 13 M55  1 5.394 12:40:19 h
21 15:18:49 h   Gormley, Tom *Tucson, AZ   USA  1970 M 14 M40  1 5.255 14:47:24 h
22 15:37:41 h   Grady, Greg *San Tan Valley, AZ   USA  1979 M 15 M23  5 5.149 15:37:30 h